Biggsville, IL (61418)

12:13 AM CST on January 30, 2015 (GMT -0600)
Kirkwood | Change Station
CLOSE
Current Station
Personal Weather Station
Location: Kirkwood, IL
Elevation: 732 ft
Nearby Weather Stations

Elev 732 ft 40.85 °N, 90.75 °W | Updated 12 minutes ago

Overcast
Overcast
28.1 °F
Feels Like 18 °F
N
11.0
Wind Variable Wind from NW
Gusts 18.0 mph

Today
High -- | Low -- °F
--% Chance of Precip.
Yesterday
High -- | Low -- °F
Precip. -- in
7:15 AM 5:18 PM
Waxing Gibbous, 80% visible
Pressure 30.48 in
Visibility 10.0 miles
Clouds Overcast 2400 ft
Windchill 18 °F
Dew Point 21 °F
Humidity 77%
Rainfall 0.00 in
Snow Depth Not available.
UV 0 out of 12
Pollen .80 out of 12
Air Quality Not available.
Flu Activity Not available.
METAR KBRL 300553Z AUTO 34010G20KT 10SM OVC024 M02/M07 A3045 RMK AO2 SLP320 T10221072 10011 21022 400561022 53021

More Conditions Fewer Conditions

Pressure 30.48 in
Visibility 10.0 miles
Clouds Overcast 2400 ft
Windchill 18 °F
Dew Point 21 °F
Humidity 77%
Rainfall 0.00 in
Snow Depth Not available.
UV 0 out of 12
Pollen .80 out of 12
Air Quality Not available.
Flu Activity Not available.
METAR KBRL 300553Z AUTO 34010G20KT 10SM OVC024 M02/M07 A3045 RMK AO2 SLP320 T10221072 10011 21022 400561022 53021

More Conditions Fewer Conditions

10-Day Weather Forecast

Almanac

Astronomy

Jan. 30, 2015 Rise Set
Actual Time
Civil Twilight
Nautical Twilight
Astronomical Twilight
Moon
Length of Visible Light
Length of Day
Tomorrow will be .
, % of the Moon is Illuminated

Today's Extremes

State Highs State Lows

Community

WunderPhotos

Upload Photos

1,791,720 photos uploaded!

WunderBlogs® & News

Nearby

Air Quality

  Air Quality AQ Index Pollutant
Not available.

Snow Depth

Station Depth Elevation

Earthquake Activity

City Distance Mag. Time & Date
Minimum magnitude displayed is 2.5.

Coastal Water Temperatures

Place Temperature

Nearby Weather Stations